sensor_id;sensor_type;location;lat;lon;timestamp;temperature;humidity
35377;DHT22;21480;51.642;4.834;2022-08-25T00:01:17;21.50;99.90
35377;DHT22;21480;51.642;4.834;2022-08-25T00:03:44;21.40;99.90
35377;DHT22;21480;51.642;4.834;2022-08-25T00:06:10;21.30;99.90
35377;DHT22;21480;51.642;4.834;2022-08-25T00:08:36;21.20;99.90
35377;DHT22;21480;51.642;4.834;2022-08-25T00:11:09;21.20;99.90
35377;DHT22;21480;51.642;4.834;2022-08-25T00:13:39;21.00;99.90
35377;DHT22;21480;51.642;4.834;2022-08-25T00:16:07;21.00;99.90
35377;DHT22;21480;51.642;4.834;2022-08-25T00:18:33;21.10;99.90
35377;DHT22;21480;51.642;4.834;2022-08-25T00:20:58;21.10;99.90
35377;DHT22;21480;51.642;4.834;2022-08-25T00:23:24;21.00;99.90
35377;DHT22;21480;51.642;4.834;2022-08-25T00:25:50;21.00;99.90
35377;DHT22;21480;51.642;4.834;2022-08-25T00:28:16;20.90;99.90
35377;DHT22;21480;51.642;4.834;2022-08-25T00:30:43;20.90;99.90
35377;DHT22;21480;51.642;4.834;2022-08-25T00:33:09;21.00;99.90
35377;DHT22;21480;51.642;4.834;2022-08-25T00:35:36;21.00;99.90
35377;DHT22;21480;51.642;4.834;2022-08-25T00:38:02;21.00;99.90
35377;DHT22;21480;51.642;4.834;2022-08-25T00:40:29;20.90;99.90
35377;DHT22;21480;51.642;4.834;2022-08-25T00:42:55;20.90;99.90
35377;DHT22;21480;51.642;4.834;2022-08-25T00:45:21;20.90;99.90
35377;DHT22;21480;51.642;4.834;2022-08-25T00:47:47;20.80;99.90
35377;DHT22;21480;51.642;4.834;2022-08-25T00:50:14;20.80;99.90
35377;DHT22;21480;51.642;4.834;2022-08-25T00:52:45;20.80;99.90
35377;DHT22;21480;51.642;4.834;2022-08-25T00:55:32;20.70;99.90
35377;DHT22;21480;51.642;4.834;2022-08-25T00:58:12;20.70;99.90
35377;DHT22;21480;51.642;4.834;2022-08-25T01:00:44;20.60;99.90
35377;DHT22;21480;51.642;4.834;2022-08-25T01:03:11;20.60;99.90
35377;DHT22;21480;51.642;4.834;2022-08-25T01:05:39;20.70;99.90
35377;DHT22;21480;51.642;4.834;2022-08-25T01:08:06;20.60;99.90
35377;DHT22;21480;51.642;4.834;2022-08-25T01:10:35;20.60;99.90
35377;DHT22;21480;51.642;4.834;2022-08-25T01:13:25;20.50;99.90
35377;DHT22;21480;51.642;4.834;2022-08-25T01:15:54;20.50;99.90
35377;DHT22;21480;51.642;4.834;2022-08-25T01:18:21;20.50;99.90
35377;DHT22;21480;51.642;4.834;2022-08-25T01:20:53;20.50;99.90
35377;DHT22;21480;51.642;4.834;2022-08-25T01:23:20;20.50;99.90
35377;DHT22;21480;51.642;4.834;2022-08-25T01:26:07;20.40;99.90
35377;DHT22;21480;51.642;4.834;2022-08-25T01:28:35;20.40;99.90
35377;DHT22;21480;51.642;4.834;2022-08-25T01:31:01;20.40;99.90
35377;DHT22;21480;51.642;4.834;2022-08-25T01:33:27;20.40;99.90
35377;DHT22;21480;51.642;4.834;2022-08-25T01:35:53;20.40;99.90
35377;DHT22;21480;51.642;4.834;2022-08-25T01:38:19;20.40;99.90
35377;DHT22;21480;51.642;4.834;2022-08-25T01:40:45;20.30;99.90
35377;DHT22;21480;51.642;4.834;2022-08-25T01:45:44;20.30;99.90
35377;DHT22;21480;51.642;4.834;2022-08-25T01:48:12;20.30;99.90
35377;DHT22;21480;51.642;4.834;2022-08-25T01:50:38;20.30;99.90
35377;DHT22;21480;51.642;4.834;2022-08-25T01:53:18;20.30;99.90
35377;DHT22;21480;51.642;4.834;2022-08-25T01:55:46;20.30;99.90
35377;DHT22;21480;51.642;4.834;2022-08-25T01:58:34;20.20;99.90
35377;DHT22;21480;51.642;4.834;2022-08-25T02:01:04;20.20;99.90
35377;DHT22;21480;51.642;4.834;2022-08-25T02:03:31;20.10;99.90
35377;DHT22;21480;51.642;4.834;2022-08-25T02:06:01;20.10;99.90
35377;DHT22;21480;51.642;4.834;2022-08-25T02:08:27;20.10;99.90
35377;DHT22;21480;51.642;4.834;2022-08-25T02:10:53;20.00;99.90
35377;DHT22;21480;51.642;4.834;2022-08-25T02:13:20;19.90;99.90
35377;DHT22;21480;51.642;4.834;2022-08-25T02:15:51;19.90;99.90
35377;DHT22;21480;51.642;4.834;2022-08-25T02:18:19;19.80;99.90
35377;DHT22;21480;51.642;4.834;2022-08-25T02:20:45;19.80;99.90
35377;DHT22;21480;51.642;4.834;2022-08-25T02:23:11;19.80;99.90
35377;DHT22;21480;51.642;4.834;2022-08-25T02:25:40;19.80;99.90
35377;DHT22;21480;51.642;4.834;2022-08-25T02:28:07;19.90;99.90
35377;DHT22;21480;51.642;4.834;2022-08-25T02:30:35;19.90;99.90
35377;DHT22;21480;51.642;4.834;2022-08-25T02:33:04;19.90;99.90
35377;DHT22;21480;51.642;4.834;2022-08-25T02:35:29;20.00;99.90
35377;DHT22;21480;51.642;4.834;2022-08-25T02:37:56;20.00;99.90
35377;DHT22;21480;51.642;4.834;2022-08-25T02:40:22;20.00;99.90
35377;DHT22;21480;51.642;4.834;2022-08-25T02:42:49;20.00;99.90
35377;DHT22;21480;51.642;4.834;2022-08-25T02:45:14;20.00;99.90
35377;DHT22;21480;51.642;4.834;2022-08-25T02:47:41;19.90;99.90
35377;DHT22;21480;51.642;4.834;2022-08-25T02:50:07;19.90;99.90
35377;DHT22;21480;51.642;4.834;2022-08-25T02:52:34;19.80;99.90
35377;DHT22;21480;51.642;4.834;2022-08-25T02:55:00;19.80;99.90
35377;DHT22;21480;51.642;4.834;2022-08-25T02:57:29;19.80;99.90
35377;DHT22;21480;51.642;4.834;2022-08-25T02:59:55;19.70;99.90
35377;DHT22;21480;51.642;4.834;2022-08-25T03:02:21;19.70;99.90
35377;DHT22;21480;51.642;4.834;2022-08-25T03:04:46;19.70;99.90
35377;DHT22;21480;51.642;4.834;2022-08-25T03:07:12;19.60;99.90
35377;DHT22;21480;51.642;4.834;2022-08-25T03:09:38;19.50;99.90
35377;DHT22;21480;51.642;4.834;2022-08-25T03:12:04;19.50;99.90
35377;DHT22;21480;51.642;4.834;2022-08-25T03:14:31;19.40;99.90
35377;DHT22;21480;51.642;4.834;2022-08-25T03:16:57;19.40;99.90
35377;DHT22;21480;51.642;4.834;2022-08-25T03:19:23;19.30;99.90
35377;DHT22;21480;51.642;4.834;2022-08-25T03:21:49;19.30;99.90
35377;DHT22;21480;51.642;4.834;2022-08-25T03:24:16;19.30;99.90
35377;DHT22;21480;51.642;4.834;2022-08-25T03:26:43;19.30;99.90
35377;DHT22;21480;51.642;4.834;2022-08-25T03:29:22;19.20;99.90
35377;DHT22;21480;51.642;4.834;2022-08-25T03:31:50;19.20;99.90
35377;DHT22;21480;51.642;4.834;2022-08-25T03:34:18;19.20;99.90
35377;DHT22;21480;51.642;4.834;2022-08-25T03:36:46;19.20;99.90
35377;DHT22;21480;51.642;4.834;2022-08-25T03:39:13;19.10;99.90
35377;DHT22;21480;51.642;4.834;2022-08-25T03:41:39;19.10;99.90
35377;DHT22;21480;51.642;4.834;2022-08-25T03:44:06;19.10;99.90
35377;DHT22;21480;51.642;4.834;2022-08-25T03:46:36;19.00;99.90
35377;DHT22;21480;51.642;4.834;2022-08-25T03:49:05;19.00;99.90
35377;DHT22;21480;51.642;4.834;2022-08-25T03:51:35;19.00;99.90
35377;DHT22;21480;51.642;4.834;2022-08-25T03:54:03;19.10;99.90
35377;DHT22;21480;51.642;4.834;2022-08-25T03:56:29;19.00;99.90
35377;DHT22;21480;51.642;4.834;2022-08-25T03:58:56;19.00;99.90
35377;DHT22;21480;51.642;4.834;2022-08-25T04:01:22;19.00;99.90
35377;DHT22;21480;51.642;4.834;2022-08-25T04:03:48;19.00;99.90
35377;DHT22;21480;51.642;4.834;2022-08-25T04:06:15;19.00;99.90
35377;DHT22;21480;51.642;4.834;2022-08-25T04:08:41;18.90;99.90
35377;DHT22;21480;51.642;4.834;2022-08-25T04:11:12;18.80;99.90
35377;DHT22;21480;51.642;4.834;2022-08-25T04:13:39;18.80;99.90
35377;DHT22;21480;51.642;4.834;2022-08-25T04:16:14;18.80;99.90
35377;DHT22;21480;51.642;4.834;2022-08-25T04:18:41;18.80;99.90
35377;DHT22;21480;51.642;4.834;2022-08-25T04:21:08;18.70;99.90
35377;DHT22;21480;51.642;4.834;2022-08-25T04:23:36;18.70;99.90
35377;DHT22;21480;51.642;4.834;2022-08-25T04:26:08;18.70;99.90
35377;DHT22;21480;51.642;4.834;2022-08-25T04:28:34;18.70;99.90
35377;DHT22;21480;51.642;4.834;2022-08-25T04:31:00;18.80;99.90
35377;DHT22;21480;51.642;4.834;2022-08-25T04:33:25;18.80;99.90
35377;DHT22;21480;51.642;4.834;2022-08-25T04:35:52;18.80;99.90
35377;DHT22;21480;51.642;4.834;2022-08-25T04:38:17;18.80;99.90
35377;DHT22;21480;51.642;4.834;2022-08-25T04:40:43;18.80;99.90
35377;DHT22;21480;51.642;4.834;2022-08-25T04:43:09;18.80;99.90
35377;DHT22;21480;51.642;4.834;2022-08-25T04:45:38;18.80;99.90
35377;DHT22;21480;51.642;4.834;2022-08-25T04:48:04;18.80;99.90
35377;DHT22;21480;51.642;4.834;2022-08-25T04:50:30;18.80;99.90
35377;DHT22;21480;51.642;4.834;2022-08-25T04:52:56;18.80;99.90
35377;DHT22;21480;51.642;4.834;2022-08-25T04:55:22;18.80;99.90
35377;DHT22;21480;51.642;4.834;2022-08-25T04:57:51;18.80;99.90
35377;DHT22;21480;51.642;4.834;2022-08-25T05:00:17;18.80;99.90
35377;DHT22;21480;51.642;4.834;2022-08-25T05:02:42;18.90;99.90
35377;DHT22;21480;51.642;4.834;2022-08-25T05:05:08;19.00;99.90
35377;DHT22;21480;51.642;4.834;2022-08-25T05:07:34;19.00;99.90
35377;DHT22;21480;51.642;4.834;2022-08-25T05:09:59;19.10;99.90
35377;DHT22;21480;51.642;4.834;2022-08-25T05:12:25;19.10;99.90
35377;DHT22;21480;51.642;4.834;2022-08-25T05:14:54;19.10;99.90
35377;DHT22;21480;51.642;4.834;2022-08-25T05:17:20;19.10;99.90
35377;DHT22;21480;51.642;4.834;2022-08-25T05:19:45;19.20;99.90
35377;DHT22;21480;51.642;4.834;2022-08-25T05:22:11;19.20;99.90
35377;DHT22;21480;51.642;4.834;2022-08-25T05:24:37;19.30;99.90
35377;DHT22;21480;51.642;4.834;2022-08-25T05:27:03;19.40;99.90
35377;DHT22;21480;51.642;4.834;2022-08-25T05:29:29;19.50;99.90
35377;DHT22;21480;51.642;4.834;2022-08-25T05:31:55;19.60;99.90
35377;DHT22;21480;51.642;4.834;2022-08-25T05:34:21;19.60;99.90
35377;DHT22;21480;51.642;4.834;2022-08-25T05:36:47;19.70;99.90
35377;DHT22;21480;51.642;4.834;2022-08-25T05:39:13;19.70;99.90
35377;DHT22;21480;51.642;4.834;2022-08-25T05:41:39;19.70;99.90
35377;DHT22;21480;51.642;4.834;2022-08-25T05:44:05;19.70;99.90
35377;DHT22;21480;51.642;4.834;2022-08-25T05:46:31;19.70;99.90
35377;DHT22;21480;51.642;4.834;2022-08-25T05:48:57;19.70;99.90
35377;DHT22;21480;51.642;4.834;2022-08-25T05:51:23;19.70;99.90
35377;DHT22;21480;51.642;4.834;2022-08-25T05:53:49;19.80;99.90
35377;DHT22;21480;51.642;4.834;2022-08-25T05:56:15;19.90;99.90
35377;DHT22;21480;51.642;4.834;2022-08-25T05:58:42;20.00;99.90
35377;DHT22;21480;51.642;4.834;2022-08-25T06:01:08;20.10;99.90
35377;DHT22;21480;51.642;4.834;2022-08-25T06:03:53;20.20;99.90
35377;DHT22;21480;51.642;4.834;2022-08-25T06:06:21;20.40;99.90
35377;DHT22;21480;51.642;4.834;2022-08-25T06:08:47;20.50;99.90
35377;DHT22;21480;51.642;4.834;2022-08-25T06:11:13;20.60;99.90
35377;DHT22;21480;51.642;4.834;2022-08-25T06:13:41;20.70;99.90
35377;DHT22;21480;51.642;4.834;2022-08-25T06:16:07;20.80;99.90
35377;DHT22;21480;51.642;4.834;2022-08-25T06:18:32;20.90;99.90
35377;DHT22;21480;51.642;4.834;2022-08-25T06:20:58;21.10;99.90
35377;DHT22;21480;51.642;4.834;2022-08-25T06:23:24;21.20;99.90
35377;DHT22;21480;51.642;4.834;2022-08-25T06:25:51;21.20;99.90
35377;DHT22;21480;51.642;4.834;2022-08-25T06:28:18;21.40;99.90
35377;DHT22;21480;51.642;4.834;2022-08-25T06:30:47;21.40;99.90
35377;DHT22;21480;51.642;4.834;2022-08-25T06:33:13;21.50;99.90
35377;DHT22;21480;51.642;4.834;2022-08-25T06:35:41;21.60;99.90
35377;DHT22;21480;51.642;4.834;2022-08-25T06:38:07;21.70;99.90
35377;DHT22;21480;51.642;4.834;2022-08-25T06:40:32;21.80;99.90
35377;DHT22;21480;51.642;4.834;2022-08-25T06:43:01;21.80;99.90
35377;DHT22;21480;51.642;4.834;2022-08-25T06:45:31;21.80;99.90
35377;DHT22;21480;51.642;4.834;2022-08-25T06:47:57;21.90;99.90
35377;DHT22;21480;51.642;4.834;2022-08-25T06:50:23;21.90;99.90
35377;DHT22;21480;51.642;4.834;2022-08-25T06:52:49;22.00;99.90
35377;DHT22;21480;51.642;4.834;2022-08-25T06:55:16;22.10;99.90
35377;DHT22;21480;51.642;4.834;2022-08-25T06:57:42;22.20;99.90
35377;DHT22;21480;51.642;4.834;2022-08-25T07:00:08;22.30;99.90
35377;DHT22;21480;51.642;4.834;2022-08-25T07:02:35;22.50;99.90
35377;DHT22;21480;51.642;4.834;2022-08-25T07:05:03;22.60;99.90
35377;DHT22;21480;51.642;4.834;2022-08-25T07:07:29;22.70;99.90
35377;DHT22;21480;51.642;4.834;2022-08-25T07:09:55;22.70;99.90
35377;DHT22;21480;51.642;4.834;2022-08-25T07:12:21;22.80;99.90
35377;DHT22;21480;51.642;4.834;2022-08-25T07:14:48;22.80;99.90
35377;DHT22;21480;51.642;4.834;2022-08-25T07:17:14;22.80;99.90
35377;DHT22;21480;51.642;4.834;2022-08-25T07:19:40;22.90;99.90
35377;DHT22;21480;51.642;4.834;2022-08-25T07:22:06;23.00;99.90
35377;DHT22;21480;51.642;4.834;2022-08-25T07:24:33;23.10;99.90
35377;DHT22;21480;51.642;4.834;2022-08-25T07:26:58;23.20;99.90
35377;DHT22;21480;51.642;4.834;2022-08-25T07:29:26;23.30;99.90
35377;DHT22;21480;51.642;4.834;2022-08-25T07:31:53;23.40;99.90
35377;DHT22;21480;51.642;4.834;2022-08-25T07:34:19;23.50;99.90
35377;DHT22;21480;51.642;4.834;2022-08-25T07:37:07;23.50;99.90
35377;DHT22;21480;51.642;4.834;2022-08-25T07:39:33;23.70;99.90
35377;DHT22;21480;51.642;4.834;2022-08-25T07:41:59;23.90;99.90
35377;DHT22;21480;51.642;4.834;2022-08-25T07:44:25;23.90;99.90
35377;DHT22;21480;51.642;4.834;2022-08-25T07:46:51;24.10;99.90
35377;DHT22;21480;51.642;4.834;2022-08-25T07:49:18;24.20;99.90
35377;DHT22;21480;51.642;4.834;2022-08-25T07:51:45;24.40;99.90
35377;DHT22;21480;51.642;4.834;2022-08-25T07:54:11;24.50;99.90
35377;DHT22;21480;51.642;4.834;2022-08-25T07:56:37;24.70;99.90
35377;DHT22;21480;51.642;4.834;2022-08-25T07:59:03;24.80;99.90
35377;DHT22;21480;51.642;4.834;2022-08-25T08:01:29;25.00;99.90
35377;DHT22;21480;51.642;4.834;2022-08-25T08:03:55;25.20;99.90
35377;DHT22;21480;51.642;4.834;2022-08-25T08:06:22;25.30;99.90
35377;DHT22;21480;51.642;4.834;2022-08-25T08:08:50;25.40;99.90
35377;DHT22;21480;51.642;4.834;2022-08-25T08:11:20;25.40;99.90
35377;DHT22;21480;51.642;4.834;2022-08-25T08:13:47;25.50;99.90
35377;DHT22;21480;51.642;4.834;2022-08-25T08:16:16;25.60;99.90
35377;DHT22;21480;51.642;4.834;2022-08-25T08:18:43;25.80;99.90
35377;DHT22;21480;51.642;4.834;2022-08-25T08:21:29;26.00;99.90
35377;DHT22;21480;51.642;4.834;2022-08-25T08:23:57;26.20;99.90
35377;DHT22;21480;51.642;4.834;2022-08-25T08:26:23;26.30;99.90
35377;DHT22;21480;51.642;4.834;2022-08-25T08:28:50;26.30;99.90
35377;DHT22;21480;51.642;4.834;2022-08-25T08:31:19;26.50;99.90
35377;DHT22;21480;51.642;4.834;2022-08-25T08:33:46;26.70;99.90
35377;DHT22;21480;51.642;4.834;2022-08-25T08:36:13;26.90;99.90
35377;DHT22;21480;51.642;4.834;2022-08-25T08:38:41;27.10;99.90
35377;DHT22;21480;51.642;4.834;2022-08-25T08:47:27;27.80;99.90
35377;DHT22;21480;51.642;4.834;2022-08-25T08:55:43;28.50;99.90
35377;DHT22;21480;51.642;4.834;2022-08-25T09:01:04;28.80;99.90
35377;DHT22;21480;51.642;4.834;2022-08-25T09:03:42;28.90;99.90
35377;DHT22;21480;51.642;4.834;2022-08-25T09:08:42;29.30;99.90
35377;DHT22;21480;51.642;4.834;2022-08-25T09:11:50;29.40;99.90
35377;DHT22;21480;51.642;4.834;2022-08-25T09:15:02;29.50;99.90
35377;DHT22;21480;51.642;4.834;2022-08-25T09:17:50;29.60;99.90
35377;DHT22;21480;51.642;4.834;2022-08-25T09:28:18;30.10;99.90
35377;DHT22;21480;51.642;4.834;2022-08-25T09:30:54;29.90;99.90
35377;DHT22;21480;51.642;4.834;2022-08-25T09:33:23;29.80;99.90
35377;DHT22;21480;51.642;4.834;2022-08-25T09:35:52;29.70;99.90
35377;DHT22;21480;51.642;4.834;2022-08-25T09:38:18;29.60;99.90
35377;DHT22;21480;51.642;4.834;2022-08-25T09:40:50;29.50;99.90
35377;DHT22;21480;51.642;4.834;2022-08-25T09:43:30;29.50;99.90
35377;DHT22;21480;51.642;4.834;2022-08-25T09:51:18;29.40;99.90
35377;DHT22;21480;51.642;4.834;2022-08-25T09:53:55;29.50;99.90
35377;DHT22;21480;51.642;4.834;2022-08-25T09:56:24;29.70;99.90
35377;DHT22;21480;51.642;4.834;2022-08-25T09:58:51;29.80;99.90
35377;DHT22;21480;51.642;4.834;2022-08-25T10:01:19;30.00;99.90
35377;DHT22;21480;51.642;4.834;2022-08-25T10:03:54;30.10;99.90
35377;DHT22;21480;51.642;4.834;2022-08-25T10:06:21;30.00;99.90
35377;DHT22;21480;51.642;4.834;2022-08-25T10:11:28;30.10;99.90
35377;DHT22;21480;51.642;4.834;2022-08-25T10:14:14;30.10;99.90
35377;DHT22;21480;51.642;4.834;2022-08-25T10:16:41;30.20;99.90
35377;DHT22;21480;51.642;4.834;2022-08-25T10:19:27;30.40;99.90
35377;DHT22;21480;51.642;4.834;2022-08-25T10:24:39;30.50;99.40
35377;DHT22;21480;51.642;4.834;2022-08-25T10:27:22;30.60;99.90
35377;DHT22;21480;51.642;4.834;2022-08-25T10:30:03;30.80;99.90
35377;DHT22;21480;51.642;4.834;2022-08-25T10:39:06;31.40;98.40
35377;DHT22;21480;51.642;4.834;2022-08-25T10:41:36;31.50;98.10
35377;DHT22;21480;51.642;4.834;2022-08-25T10:49:54;31.70;94.40
35377;DHT22;21480;51.642;4.834;2022-08-25T10:55:42;31.90;95.80
35377;DHT22;21480;51.642;4.834;2022-08-25T11:01:09;32.20;90.60
35377;DHT22;21480;51.642;4.834;2022-08-25T11:04:04;32.40;88.30
35377;DHT22;21480;51.642;4.834;2022-08-25T11:09:07;32.60;83.90
35377;DHT22;21480;51.642;4.834;2022-08-25T11:14:27;32.80;85.10
35377;DHT22;21480;51.642;4.834;2022-08-25T11:17:08;32.90;89.10
35377;DHT22;21480;51.642;4.834;2022-08-25T11:19:38;32.90;89.80
35377;DHT22;21480;51.642;4.834;2022-08-25T11:27:33;33.30;81.10
35377;DHT22;21480;51.642;4.834;2022-08-25T11:30:09;33.40;79.70
35377;DHT22;21480;51.642;4.834;2022-08-25T11:32:37;33.70;76.50
35377;DHT22;21480;51.642;4.834;2022-08-25T11:35:07;33.90;80.70
35377;DHT22;21480;51.642;4.834;2022-08-25T11:37:41;33.50;76.70
35377;DHT22;21480;51.642;4.834;2022-08-25T11:46:35;33.60;79.90
35377;DHT22;21480;51.642;4.834;2022-08-25T11:55:25;34.30;78.00
35377;DHT22;21480;51.642;4.834;2022-08-25T12:00:45;34.90;86.80
35377;DHT22;21480;51.642;4.834;2022-08-25T12:06:27;35.20;82.00
35377;DHT22;21480;51.642;4.834;2022-08-25T12:27:42;38.70;72.70
35377;DHT22;21480;51.642;4.834;2022-08-25T12:30:23;39.10;77.20
35377;DHT22;21480;51.642;4.834;2022-08-25T12:41:11;39.80;69.30
35377;DHT22;21480;51.642;4.834;2022-08-25T12:43:46;39.60;68.60
35377;DHT22;21480;51.642;4.834;2022-08-25T12:48:59;40.00;71.90
35377;DHT22;21480;51.642;4.834;2022-08-25T12:57:22;40.90;67.30
35377;DHT22;21480;51.642;4.834;2022-08-25T12:59:53;41.50;65.20
35377;DHT22;21480;51.642;4.834;2022-08-25T13:11:52;40.70;63.40
35377;DHT22;21480;51.642;4.834;2022-08-25T13:14:26;41.80;66.30
35377;DHT22;21480;51.642;4.834;2022-08-25T13:16:58;42.10;62.30
35377;DHT22;21480;51.642;4.834;2022-08-25T13:19:26;42.20;62.10
35377;DHT22;21480;51.642;4.834;2022-08-25T13:21:53;42.40;59.30
35377;DHT22;21480;51.642;4.834;2022-08-25T13:24:25;41.30;62.00
35377;DHT22;21480;51.642;4.834;2022-08-25T13:27:21;40.10;63.70
35377;DHT22;21480;51.642;4.834;2022-08-25T13:29:55;38.20;65.00
35377;DHT22;21480;51.642;4.834;2022-08-25T13:32:33;37.60;67.10
35377;DHT22;21480;51.642;4.834;2022-08-25T13:35:16;37.40;68.50
35377;DHT22;21480;51.642;4.834;2022-08-25T13:37:42;37.30;67.00
35377;DHT22;21480;51.642;4.834;2022-08-25T13:40:22;36.80;65.70
35377;DHT22;21480;51.642;4.834;2022-08-25T13:42:50;36.40;67.90
35377;DHT22;21480;51.642;4.834;2022-08-25T13:45:22;36.50;68.60
35377;DHT22;21480;51.642;4.834;2022-08-25T13:47:49;38.10;67.90
35377;DHT22;21480;51.642;4.834;2022-08-25T13:50:28;39.10;68.70
35377;DHT22;21480;51.642;4.834;2022-08-25T13:53:07;39.50;68.80
35377;DHT22;21480;51.642;4.834;2022-08-25T13:55:48;38.40;68.30
35377;DHT22;21480;51.642;4.834;2022-08-25T13:58:27;37.40;69.90
35377;DHT22;21480;51.642;4.834;2022-08-25T14:03:44;37.50;69.40
35377;DHT22;21480;51.642;4.834;2022-08-25T14:11:58;36.60;71.10
35377;DHT22;21480;51.642;4.834;2022-08-25T14:14:01;35.90;71.90
35377;DHT22;21480;51.642;4.834;2022-08-25T14:16:28;35.40;74.70
35377;DHT22;21480;51.642;4.834;2022-08-25T14:18:56;35.10;73.00
35377;DHT22;21480;51.642;4.834;2022-08-25T14:21:28;34.80;73.80
35377;DHT22;21480;51.642;4.834;2022-08-25T14:23:54;34.60;73.70
35377;DHT22;21480;51.642;4.834;2022-08-25T14:26:20;34.30;69.30
35377;DHT22;21480;51.642;4.834;2022-08-25T14:28:46;34.00;64.50
35377;DHT22;21480;51.642;4.834;2022-08-25T14:31:25;33.90;59.40
35377;DHT22;21480;51.642;4.834;2022-08-25T14:34:07;33.80;59.30
35377;DHT22;21480;51.642;4.834;2022-08-25T14:36:34;33.70;59.90
35377;DHT22;21480;51.642;4.834;2022-08-25T14:39:02;33.70;61.00
35377;DHT22;21480;51.642;4.834;2022-08-25T14:41:31;33.60;60.10
35377;DHT22;21480;51.642;4.834;2022-08-25T14:43:59;33.60;60.40
35377;DHT22;21480;51.642;4.834;2022-08-25T14:46:28;33.50;61.20
35377;DHT22;21480;51.642;4.834;2022-08-25T14:48:57;33.30;63.50
35377;DHT22;21480;51.642;4.834;2022-08-25T14:51:25;33.10;63.80
35377;DHT22;21480;51.642;4.834;2022-08-25T14:53:53;33.00;65.00
35377;DHT22;21480;51.642;4.834;2022-08-25T14:56:20;32.90;64.80
35377;DHT22;21480;51.642;4.834;2022-08-25T14:58:46;32.80;63.90
35377;DHT22;21480;51.642;4.834;2022-08-25T15:01:13;32.80;64.80
35377;DHT22;21480;51.642;4.834;2022-08-25T15:03:44;32.80;63.20
35377;DHT22;21480;51.642;4.834;2022-08-25T15:06:12;32.90;63.80
35377;DHT22;21480;51.642;4.834;2022-08-25T15:08:38;33.10;65.10
35377;DHT22;21480;51.642;4.834;2022-08-25T15:11:23;33.10;63.40
35377;DHT22;21480;51.642;4.834;2022-08-25T15:13:49;33.30;64.20
35377;DHT22;21480;51.642;4.834;2022-08-25T15:16:23;34.10;64.20
35377;DHT22;21480;51.642;4.834;2022-08-25T15:18:50;35.40;59.40
35377;DHT22;21480;51.642;4.834;2022-08-25T15:21:16;36.00;58.70
35377;DHT22;21480;51.642;4.834;2022-08-25T15:23:41;35.80;59.70
35377;DHT22;21480;51.642;4.834;2022-08-25T15:26:14;35.70;60.40
35377;DHT22;21480;51.642;4.834;2022-08-25T15:28:45;36.20;59.50
35377;DHT22;21480;51.642;4.834;2022-08-25T15:31:14;36.80;57.60
35377;DHT22;21480;51.642;4.834;2022-08-25T15:33:40;37.60;58.90
35377;DHT22;21480;51.642;4.834;2022-08-25T15:36:10;37.90;56.80
35377;DHT22;21480;51.642;4.834;2022-08-25T15:38:38;38.40;56.10
35377;DHT22;21480;51.642;4.834;2022-08-25T15:41:04;38.50;54.70
35377;DHT22;21480;51.642;4.834;2022-08-25T15:43:30;38.30;55.60
35377;DHT22;21480;51.642;4.834;2022-08-25T15:45:56;38.20;56.20
35377;DHT22;21480;51.642;4.834;2022-08-25T15:48:22;38.40;54.70
35377;DHT22;21480;51.642;4.834;2022-08-25T15:50:53;38.60;55.20
35377;DHT22;21480;51.642;4.834;2022-08-25T15:53:20;38.90;54.50
35377;DHT22;21480;51.642;4.834;2022-08-25T15:55:47;38.80;54.00
35377;DHT22;21480;51.642;4.834;2022-08-25T15:58:14;38.40;53.90
35377;DHT22;21480;51.642;4.834;2022-08-25T16:00:42;36.10;72.90
35377;DHT22;21480;51.642;4.834;2022-08-25T16:03:08;35.40;78.90
35377;DHT22;21480;51.642;4.834;2022-08-25T16:05:39;35.10;83.30
35377;DHT22;21480;51.642;4.834;2022-08-25T16:08:05;34.30;88.90
35377;DHT22;21480;51.642;4.834;2022-08-25T16:10:35;33.50;91.60
35377;DHT22;21480;51.642;4.834;2022-08-25T16:13:02;32.70;93.80
35377;DHT22;21480;51.642;4.834;2022-08-25T16:15:28;32.20;95.40
35377;DHT22;21480;51.642;4.834;2022-08-25T16:17:54;31.90;96.80
35377;DHT22;21480;51.642;4.834;2022-08-25T16:20:20;31.60;97.50
35377;DHT22;21480;51.642;4.834;2022-08-25T16:22:46;31.40;98.10
35377;DHT22;21480;51.642;4.834;2022-08-25T16:25:13;31.20;97.70
35377;DHT22;21480;51.642;4.834;2022-08-25T16:27:39;31.00;97.30
35377;DHT22;21480;51.642;4.834;2022-08-25T16:30:09;30.80;97.90
35377;DHT22;21480;51.642;4.834;2022-08-25T16:32:35;30.50;98.70
35377;DHT22;21480;51.642;4.834;2022-08-25T16:35:02;30.40;99.10
35377;DHT22;21480;51.642;4.834;2022-08-25T16:37:27;30.10;99.70
35377;DHT22;21480;51.642;4.834;2022-08-25T16:39:54;29.60;99.90
35377;DHT22;21480;51.642;4.834;2022-08-25T16:42:20;29.50;99.90
35377;DHT22;21480;51.642;4.834;2022-08-25T16:44:46;29.20;99.90
35377;DHT22;21480;51.642;4.834;2022-08-25T16:47:12;29.00;99.90
35377;DHT22;21480;51.642;4.834;2022-08-25T16:49:39;28.80;99.90
35377;DHT22;21480;51.642;4.834;2022-08-25T16:52:06;28.90;99.90
35377;DHT22;21480;51.642;4.834;2022-08-25T16:54:52;28.90;99.90
35377;DHT22;21480;51.642;4.834;2022-08-25T16:57:36;28.90;99.90
35377;DHT22;21480;51.642;4.834;2022-08-25T17:00:04;28.70;99.90
35377;DHT22;21480;51.642;4.834;2022-08-25T17:02:30;28.60;99.90
35377;DHT22;21480;51.642;4.834;2022-08-25T17:04:56;28.40;99.90
35377;DHT22;21480;51.642;4.834;2022-08-25T17:07:21;28.30;99.90
35377;DHT22;21480;51.642;4.834;2022-08-25T17:09:47;28.10;99.90
35377;DHT22;21480;51.642;4.834;2022-08-25T17:12:13;28.00;99.90
35377;DHT22;21480;51.642;4.834;2022-08-25T17:14:39;27.90;99.90
35377;DHT22;21480;51.642;4.834;2022-08-25T17:17:05;27.70;99.90
35377;DHT22;21480;51.642;4.834;2022-08-25T17:19:31;27.50;99.90
35377;DHT22;21480;51.642;4.834;2022-08-25T17:21:57;27.40;99.90
35377;DHT22;21480;51.642;4.834;2022-08-25T17:24:23;27.20;99.90
35377;DHT22;21480;51.642;4.834;2022-08-25T17:26:49;27.00;99.90
35377;DHT22;21480;51.642;4.834;2022-08-25T17:29:16;26.80;99.90
35377;DHT22;21480;51.642;4.834;2022-08-25T17:31:42;26.70;99.90
35377;DHT22;21480;51.642;4.834;2022-08-25T17:34:11;26.50;99.90
35377;DHT22;21480;51.642;4.834;2022-08-25T17:36:38;26.50;99.90
35377;DHT22;21480;51.642;4.834;2022-08-25T17:39:05;26.30;99.90
35377;DHT22;21480;51.642;4.834;2022-08-25T17:41:31;26.20;99.90
35377;DHT22;21480;51.642;4.834;2022-08-25T17:43:58;26.00;99.90
35377;DHT22;21480;51.642;4.834;2022-08-25T17:46:24;25.90;99.90
35377;DHT22;21480;51.642;4.834;2022-08-25T17:48:50;25.80;99.90
35377;DHT22;21480;51.642;4.834;2022-08-25T17:51:17;25.70;99.90
35377;DHT22;21480;51.642;4.834;2022-08-25T17:53:43;25.60;99.90
35377;DHT22;21480;51.642;4.834;2022-08-25T17:56:12;25.50;99.90
35377;DHT22;21480;51.642;4.834;2022-08-25T17:58:39;25.30;99.90
35377;DHT22;21480;51.642;4.834;2022-08-25T18:01:05;25.30;99.90